Stunt Ranch Reserve, Santa Monica Mtns, California Weather observations

Data are for 10 minute period ending at time listed.
 Day   Time   Solar   Ave.   Ave.  Ave.  Vector  Max.   Baro.   Total    
  of    of     Rad.   Air    Rel.  Wind   Wind   Wind  Press.  Precip.   
Year   Day            Temp.  Hum.  Speed  Dir.   Gust                    
2016   (PST)  Kw/m2    F      %     mph   deg.    mph    mb.     in.     
-------------------------------------------------------------------------
 269    4:10   0.00   69.5    23    2.0   232     3.3   970.2    0.00 
 269    4:20   0.00   70.0    22    1.9   297     3.8   970.2    0.00 
 269    4:30   0.00   68.9    23    3.0   263     5.0   970.2    0.00 
 269    4:40   0.00   68.8    23    1.4   240     3.9   970.2    0.00 
 269    4:50   0.00   69.9    22    1.7   143     4.1   970.5    0.00 
 269    5:00   0.00   70.3    22    0.8    15     3.4   970.5    0.00 
 269    5:10   0.00   70.4    21    1.3   136     2.3   970.5    0.00 
 269    5:20   0.00   71.6    20    1.1   129     3.1   970.5    0.00 
 269    5:30   0.00   71.7    20    0.7   196     1.8   970.5    0.00 
 269    5:40   0.00   72.9    19    1.5   136     3.8   970.9    0.00 
 269    5:50   0.00   72.7    20    1.0   166     2.9   970.9    0.00 
 269    6:00   0.01   71.4    21    1.4   266     2.8   970.9    0.00 
 269    6:10   0.01   69.9    22    2.3   130     4.6   970.9    0.00 
 269    6:20   0.01   71.4    21    2.8    98     4.7   971.2    0.00 
 269    6:30   0.01   73.5    20    2.8   130     4.9   970.9    0.00 
 269    6:40   0.03   74.1    20    1.9    92     5.3   971.2    0.00 
 269    6:50   0.11   74.0    20    2.3   103     5.5   971.2    0.00 
 269    7:00   0.18   76.7    18    2.9   115     5.1   971.2    0.00 
 269    7:10   0.21   80.9    16    2.0   121     5.8   971.2    0.00 
 269    7:20   0.25   82.7    15    2.4    89     4.5   971.2    0.00 
 269    7:30   0.28   83.2    15    3.0   117     5.4   971.2    0.00 
 269    7:40   0.32   85.4    13    4.6   114     9.3   971.2    0.00 
 269    7:50   0.35   86.7    12    4.7   122    10.4   971.2    0.00 
 269    8:00   0.39   87.7    12    3.7   103     9.9   971.2    0.00 
 269    8:10   0.43   88.0    11    4.2    86     7.6   971.2    0.00 
 269    8:20   0.46   88.9    11    4.5   110     9.2   971.2    0.00 
 269    8:30   0.49   89.7    10    5.1   146    12.6   971.2    0.00 
 269    8:40   0.52   90.9    10    3.7   165    10.3   971.6    0.00 
 269    8:50   0.54   90.8    10    3.4   299     6.7   971.6    0.00 
 269    9:00   0.57   91.9    10    2.1   329     7.5   971.9    0.00 
 269    9:10   0.60   92.6    10    3.0   198    10.5   971.9    0.00 
 269    9:20   0.62   92.8    10    4.7   204     9.7   971.9    0.00 
 269    9:30   0.65   93.6     9    4.4   345    11.5   971.9    0.00 
 269    9:40   0.66   93.5     9    5.3    71    13.8   971.9    0.00 
 269    9:50   0.68   93.7     8    4.2    41    10.4   971.9    0.00 
 269   10:00   0.71   96.2     8    6.2   349    11.8   971.9    0.00 
 269   10:10   0.72   94.9     8    3.5   172     8.5   971.9    0.00 
 269   10:20   0.69   96.1     7    5.2   337    14.2   971.9    0.00 
 269   10:30   0.74   96.8     7    6.6    20    16.3   971.9    0.00 
 269   10:40   0.76   96.2     7    7.4    35    15.6   971.6    0.00 
 269   10:50   0.77   95.1     7    3.0   350    11.4   971.6    0.00 
 269   11:00   0.71   97.1     7    5.6     6    18.0   971.2    0.00 
 269   11:10   0.72   97.1     7    5.9   337    15.2   971.2    0.00 
 269   11:20   0.71   96.8     7    6.4     2    15.8   971.2    0.00 
 269   11:30   0.71   96.0     7    8.0    23    24.0   971.2    0.00 
 269   11:40   0.72   95.9     7    4.9   326    11.0   971.2    0.00 
 269   11:50   0.71   97.1     7    6.2   333    17.0   970.9    0.00 
 269   12:00   0.72   96.3     6    8.0     0    22.4   970.9    0.00 
 269   12:10   0.72   96.7     6    5.9   353    13.7   970.5    0.00 
 269   12:20   0.76   96.6     6    6.5     8    18.1   970.5    0.00 
 269   12:30   0.74   97.7     6    6.8   358    20.1   970.2    0.00 
 269   12:40   0.78   96.5     6    4.1   290    13.6   970.2    0.00 
 269   12:50   0.71   97.6     6    5.9   348    18.3   969.9    0.00 
 269   13:00   0.72   97.7     6    7.1   346    17.9   969.9    0.00 
 269   13:10   0.71   98.5     6    5.4   340    14.5   969.9    0.00 
 269   13:20   0.69   99.2     6    5.0   345    16.7   969.5    0.00 
 269   13:30   0.69   97.3     6    6.8     4    17.5   969.5    0.00 
 269   13:40   0.68   97.2     6    8.4   354    17.7   969.5    0.00 
 269   13:50   0.68   97.0     6    7.2   340    19.9   969.2    0.00 
 269   14:00   0.66   97.0     6    6.4    30    18.6   969.5    0.00 
 269   14:10   0.62   97.3     6    7.3   351    14.5   969.2    0.00 
 269   14:20   0.59   97.6     5    6.6    10    18.3   969.2    0.00 
 269   14:30   0.57   96.7     5    8.8    12    20.7   969.2    0.00 
 269   14:40   0.55   96.7     5    8.8     9    21.0   969.2    0.00 
 269   14:50   0.53   97.1     5    8.1    22    17.2   968.8    0.00 
 269   15:00   0.50   96.6     5    8.4    16    19.4   968.8    0.00 
 269   15:10   0.47   96.7     5    8.4     9    17.7   968.8    0.00 
 269   15:20   0.44   97.2     5    6.7   349    15.6   968.8    0.00 
 269   15:30   0.40   97.1     5    7.5     4    23.1   968.5    0.00 
 269   15:40   0.37   96.5     6    8.4     1    17.5   968.5    0.00 
 269   15:50   0.34   96.5     6    7.5   351    18.0   968.5    0.00 
 269   16:00   0.31   96.6     6    7.3   346    17.0   968.5    0.00 
 269   16:10   0.27   96.5     6    8.8   341    18.0   968.2    0.00 
 269   16:20   0.24   95.8     6    9.9   350    21.0   968.2    0.00 
 269   16:30   0.21   95.3     6    7.6   341    15.3   968.2    0.00 
 269   16:40   0.17   94.8     6    9.5   343    23.8   968.2    0.00 
 269   16:50   0.14   93.7     6    6.6   352    16.9   968.2    0.00 
 269   17:00   0.11   93.6     6    6.4   338    17.6   968.5    0.00 
 269   17:10   0.09   93.4     6    6.7   337    14.4   968.5    0.00 
 269   17:20   0.07   92.6     7    7.1   357    15.2   968.5    0.00 
 269   17:30   0.04   91.6     7    7.3   353    21.0   968.2    0.00 
 269   17:40   0.01   91.2     7    7.9   335    15.4   968.2    0.00 
 269   17:50   0.01   90.4     7    8.8   338    16.1   968.2    0.00 
 269   18:00   0.00   89.8     7    7.7   335    16.4   968.2    0.00 
 269   18:10   0.00   89.3     7    7.3   337    16.1   967.8    0.00 
 269   18:20   0.00   88.9     8    7.0   335    16.2   967.8    0.00 
 269   18:30   0.00   88.8     8    8.5   339    20.0   967.8    0.00 
 269   18:40   0.00   88.6     8    7.5   338    16.4   967.8    0.00 
 269   18:50   0.00   87.9     8    7.5   332    15.7   967.8    0.00 
 269   19:00   0.00   87.8     8    9.4   334    19.2   967.8    0.00 
 269   19:10   0.00   87.5     8    7.9   332    16.3   967.8    0.00 
 269   19:20   0.00   87.2     8    8.6   335    18.0   967.8    0.00 
 269   19:30   0.00   87.3     8    6.0   333    13.8   968.2    0.00 
 269   19:40   0.00   87.1     9    4.3   346     9.6   968.2    0.00 
 269   19:50   0.00   86.1     9    4.2   334    11.4   968.2    0.00 
 269   20:00   0.00   86.1     9    3.2   326    10.2   968.2    0.00 
 269   20:10   0.00   85.3     9    4.1   323    11.5   968.2    0.00 
 269   20:20   0.00   84.4    10    3.7   314     9.6   968.5    0.00 
 269   20:30   0.00   84.3    10    2.3   274     6.1   968.5    0.00 
 269   20:40   0.00   85.0    10    3.3   246     5.9   968.5    0.00 
 269   20:50   0.00   84.9    10    1.5   247     5.4   968.8    0.00 
 269   21:00   0.00   82.9    10    2.7   170     6.9   968.5    0.00 
 269   21:10   0.00   83.7    10    3.8   127     8.1   968.5    0.00 
 269   21:20   0.00   83.7    10    5.0   120     9.1   968.8    0.00 
 269   21:30   0.00   85.4     9    4.7   118     8.9   968.8    0.00 
 269   21:40   0.00   85.2     9    5.0   128     8.6   968.8    0.00 
 269   21:50   0.00   84.0    10    7.0   137     9.1   968.8    0.00 
 269   22:00   0.00   84.5    10    5.8   122     8.9   968.8    0.00 
 269   22:10   0.00   83.6    10    4.7   153     8.8   968.8    0.00 
 269   22:20   0.00   82.7    10    2.2   292     5.1   968.8    0.00 
 269   22:30   0.00   80.2    11    1.8   269     4.0   968.8    0.00 
 269   22:40   0.00   79.0    12    3.1   137     6.1   968.8    0.00 
 269   22:50   0.00   78.3    12    3.5   175     5.7   969.2    0.00 
 269   23:00   0.00   80.1    12    1.8   207     2.9   969.2    0.00 
 269   23:10   100.00  99999.0   99999  99999.0   99999   99999.0   99999.0   99999.00 
 269   23:20   100.00  99999.0   99999  99999.0   99999   99999.0   99999.0   99999.00 
 269   23:30   100.00  99999.0   99999  99999.0   99999   99999.0   99999.0   99999.00 
 269   23:40   100.00  99999.0   99999  99999.0   99999   99999.0   99999.0   99999.00 
 269   23:50   100.00  99999.0   99999  99999.0   99999   99999.0   99999.0   99999.00 
 270    0:00   0.00   78.0    13    1.5   299     3.7   969.2    0.00 
 270    0:10   0.00   77.6    14    2.2   268     5.6   969.2    0.00 
 270    0:20   0.00   77.0    14    2.0   265     5.2   969.2    0.00 
 270    0:30   0.00   75.6    15    2.0   131     4.8   969.2    0.00 
 270    0:40   0.00   75.5    14    1.2    66     4.3   969.2    0.00 
 270    0:50   0.00   75.7    14    1.2   122     2.8   969.2    0.00 
 270    1:00   0.00   76.0    14    1.4   140     2.7   969.2    0.00 
 270    1:10   0.00   76.7    14    1.6    65     3.7   969.2    0.00 
 270    1:20   0.00   76.0    14    1.8   288     4.5   969.2    0.00 
 270    1:30   0.00   75.0    15    1.2   168     3.0   969.2    0.00 
 270    1:40   0.00   75.2    15    1.7    76     5.3   969.2    0.00 
 270    1:50   0.00   75.1    15    2.5   135     5.3   968.8    0.00 
 270    2:00   0.00   75.6    15    3.3   114     5.0   968.8    0.00 
 270    2:10   0.00   77.3    15    1.8   123     5.4   968.8    0.00 
 270    2:20   0.00   75.2    15    2.0   219     6.0   968.8    0.00 
 270    2:30   0.00   74.7    15    1.7   138     3.6   968.8    0.00 
 270    2:40   0.00   74.8    15    0.9   133     2.0   968.8    0.00 
 270    2:50   0.00   74.8    15    0.8   163     1.3   968.8    0.00 
 270    3:00   0.00   75.1    14    1.3   129     3.0   968.8    0.00 
 270    3:10   0.00   74.7    15    2.1   129     3.7   968.8    0.00 
 270    3:20   0.00   74.8    15    1.1   310     2.6   968.5    0.00 
 270    3:30   0.00   74.6    15    0.8    65     2.0   968.8    0.00 
 270    3:40   0.00   75.4    14    0.9   120     2.0   968.5    0.00 
 270    3:50   0.00   75.6    15    1.0   202     2.0   968.5    0.00 
 270    4:00   0.00   75.3    15    0.9   273     1.8   968.5    0.00 

Return to Stunt Ranch Reserve graphs page.


Western Regional Climate Center,wrcc@dri.edu